sensor_id;sensor_type;location;lat;lon;timestamp;temperature;humidity
18446;DHT22;9352;50.888;4.466;2022-12-18T00:00:59;-4.00;99.90
18446;DHT22;9352;50.888;4.466;2022-12-18T00:03:31;-4.00;99.90
18446;DHT22;9352;50.888;4.466;2022-12-18T00:06:01;-4.00;99.90
18446;DHT22;9352;50.888;4.466;2022-12-18T00:08:28;-4.10;99.90
18446;DHT22;9352;50.888;4.466;2022-12-18T00:10:55;-4.10;99.90
18446;DHT22;9352;50.888;4.466;2022-12-18T00:13:29;-4.20;99.90
18446;DHT22;9352;50.888;4.466;2022-12-18T00:16:01;-4.20;99.90
18446;DHT22;9352;50.888;4.466;2022-12-18T00:18:28;-4.20;99.90
18446;DHT22;9352;50.888;4.466;2022-12-18T00:20:58;-4.30;99.90
18446;DHT22;9352;50.888;4.466;2022-12-18T00:23:26;-4.30;99.90
18446;DHT22;9352;50.888;4.466;2022-12-18T00:25:53;-4.30;99.90
18446;DHT22;9352;50.888;4.466;2022-12-18T00:28:20;-4.30;99.90
18446;DHT22;9352;50.888;4.466;2022-12-18T00:30:47;-4.30;99.90
18446;DHT22;9352;50.888;4.466;2022-12-18T00:33:18;-4.30;99.90
18446;DHT22;9352;50.888;4.466;2022-12-18T00:35:45;-4.30;99.90
18446;DHT22;9352;50.888;4.466;2022-12-18T00:38:12;-4.30;99.90
18446;DHT22;9352;50.888;4.466;2022-12-18T00:40:41;-4.40;99.90
18446;DHT22;9352;50.888;4.466;2022-12-18T00:43:08;-4.40;99.90
18446;DHT22;9352;50.888;4.466;2022-12-18T00:45:34;-4.40;99.90
18446;DHT22;9352;50.888;4.466;2022-12-18T00:48:01;-4.40;99.90
18446;DHT22;9352;50.888;4.466;2022-12-18T00:50:29;-4.40;99.90
18446;DHT22;9352;50.888;4.466;2022-12-18T00:52:56;-4.40;99.90
18446;DHT22;9352;50.888;4.466;2022-12-18T00:55:23;-4.40;99.90
18446;DHT22;9352;50.888;4.466;2022-12-18T00:57:51;-4.40;99.90
18446;DHT22;9352;50.888;4.466;2022-12-18T01:00:18;-4.50;99.90
18446;DHT22;9352;50.888;4.466;2022-12-18T01:02:44;-4.50;99.90
18446;DHT22;9352;50.888;4.466;2022-12-18T01:05:13;-4.40;99.90
18446;DHT22;9352;50.888;4.466;2022-12-18T01:07:41;-4.40;99.90
18446;DHT22;9352;50.888;4.466;2022-12-18T01:10:10;-4.40;99.90
18446;DHT22;9352;50.888;4.466;2022-12-18T01:12:38;-4.50;99.90
18446;DHT22;9352;50.888;4.466;2022-12-18T01:15:06;-4.50;99.90
18446;DHT22;9352;50.888;4.466;2022-12-18T01:17:34;-4.50;99.90
18446;DHT22;9352;50.888;4.466;2022-12-18T01:20:01;-4.50;99.90
18446;DHT22;9352;50.888;4.466;2022-12-18T01:22:28;-4.50;99.90
18446;DHT22;9352;50.888;4.466;2022-12-18T01:24:56;-4.50;99.90
18446;DHT22;9352;50.888;4.466;2022-12-18T01:27:23;-4.60;99.90
18446;DHT22;9352;50.888;4.466;2022-12-18T01:29:50;-4.50;99.90
18446;DHT22;9352;50.888;4.466;2022-12-18T01:32:17;-4.50;99.90
18446;DHT22;9352;50.888;4.466;2022-12-18T01:34:45;-4.50;99.90
18446;DHT22;9352;50.888;4.466;2022-12-18T01:37:11;-4.60;99.90
18446;DHT22;9352;50.888;4.466;2022-12-18T01:39:38;-4.50;99.90
18446;DHT22;9352;50.888;4.466;2022-12-18T01:42:11;-4.60;99.90
18446;DHT22;9352;50.888;4.466;2022-12-18T01:44:55;-4.60;99.90
18446;DHT22;9352;50.888;4.466;2022-12-18T01:47:25;-4.60;99.90
18446;DHT22;9352;50.888;4.466;2022-12-18T01:49:54;-4.60;99.90
18446;DHT22;9352;50.888;4.466;2022-12-18T01:52:22;-4.60;99.90
18446;DHT22;9352;50.888;4.466;2022-12-18T01:54:51;-4.60;99.90
18446;DHT22;9352;50.888;4.466;2022-12-18T01:57:20;-4.70;99.90
18446;DHT22;9352;50.888;4.466;2022-12-18T01:59:50;-4.60;99.90
18446;DHT22;9352;50.888;4.466;2022-12-18T02:02:20;-4.60;99.90
18446;DHT22;9352;50.888;4.466;2022-12-18T02:04:47;-4.60;99.90
18446;DHT22;9352;50.888;4.466;2022-12-18T02:07:17;-4.70;99.90
18446;DHT22;9352;50.888;4.466;2022-12-18T02:09:50;-4.70;99.90
18446;DHT22;9352;50.888;4.466;2022-12-18T02:12:21;-4.60;99.90
18446;DHT22;9352;50.888;4.466;2022-12-18T02:14:55;-4.60;99.90
18446;DHT22;9352;50.888;4.466;2022-12-18T02:17:31;-4.60;99.90
18446;DHT22;9352;50.888;4.466;2022-12-18T02:20:13;-4.60;99.90
18446;DHT22;9352;50.888;4.466;2022-12-18T02:22:48;-4.60;99.90
18446;DHT22;9352;50.888;4.466;2022-12-18T02:25:25;-4.60;99.90
18446;DHT22;9352;50.888;4.466;2022-12-18T02:27:57;-4.70;99.90
18446;DHT22;9352;50.888;4.466;2022-12-18T02:30:24;-4.70;99.90
18446;DHT22;9352;50.888;4.466;2022-12-18T02:32:53;-4.70;99.90
18446;DHT22;9352;50.888;4.466;2022-12-18T02:35:23;-4.60;99.90
18446;DHT22;9352;50.888;4.466;2022-12-18T02:37:53;-4.70;99.90
18446;DHT22;9352;50.888;4.466;2022-12-18T02:40:22;-4.60;99.90
18446;DHT22;9352;50.888;4.466;2022-12-18T02:42:50;-4.60;99.90
18446;DHT22;9352;50.888;4.466;2022-12-18T02:45:19;-4.70;99.90
18446;DHT22;9352;50.888;4.466;2022-12-18T02:47:48;-4.70;99.90
18446;DHT22;9352;50.888;4.466;2022-12-18T02:50:19;-4.70;99.90
18446;DHT22;9352;50.888;4.466;2022-12-18T02:52:56;-4.80;99.90
18446;DHT22;9352;50.888;4.466;2022-12-18T02:55:30;-4.80;99.90
18446;DHT22;9352;50.888;4.466;2022-12-18T02:58:05;-4.80;99.90
18446;DHT22;9352;50.888;4.466;2022-12-18T03:00:41;-4.80;99.90
18446;DHT22;9352;50.888;4.466;2022-12-18T03:03:13;-4.90;99.90
18446;DHT22;9352;50.888;4.466;2022-12-18T03:05:46;-4.90;99.90
18446;DHT22;9352;50.888;4.466;2022-12-18T03:08:17;-4.90;99.90
18446;DHT22;9352;50.888;4.466;2022-12-18T03:10:51;-4.90;99.90
18446;DHT22;9352;50.888;4.466;2022-12-18T03:13:23;-4.90;99.90
18446;DHT22;9352;50.888;4.466;2022-12-18T03:15:56;-4.90;99.90
18446;DHT22;9352;50.888;4.466;2022-12-18T03:18:26;-5.00;99.90
18446;DHT22;9352;50.888;4.466;2022-12-18T03:20:58;-5.00;99.90
18446;DHT22;9352;50.888;4.466;2022-12-18T03:23:29;-5.00;99.90
18446;DHT22;9352;50.888;4.466;2022-12-18T03:26:01;-5.00;99.90
18446;DHT22;9352;50.888;4.466;2022-12-18T03:28:31;-5.00;99.90
18446;DHT22;9352;50.888;4.466;2022-12-18T03:31:01;-5.00;99.90
18446;DHT22;9352;50.888;4.466;2022-12-18T03:33:35;-5.00;99.90
18446;DHT22;9352;50.888;4.466;2022-12-18T03:36:04;-5.00;99.90
18446;DHT22;9352;50.888;4.466;2022-12-18T03:38:31;-5.00;99.90
18446;DHT22;9352;50.888;4.466;2022-12-18T03:41:01;-5.00;99.90
18446;DHT22;9352;50.888;4.466;2022-12-18T03:43:40;-5.00;99.90
18446;DHT22;9352;50.888;4.466;2022-12-18T03:46:14;-5.00;99.90
18446;DHT22;9352;50.888;4.466;2022-12-18T03:48:46;-5.10;99.90
18446;DHT22;9352;50.888;4.466;2022-12-18T03:51:18;-5.10;99.90
18446;DHT22;9352;50.888;4.466;2022-12-18T03:53:53;-5.10;99.90
18446;DHT22;9352;50.888;4.466;2022-12-18T03:56:25;-5.10;99.90
18446;DHT22;9352;50.888;4.466;2022-12-18T03:58:54;-5.10;99.90
18446;DHT22;9352;50.888;4.466;2022-12-18T04:01:26;-5.10;99.90
18446;DHT22;9352;50.888;4.466;2022-12-18T04:03:56;-5.10;99.90
18446;DHT22;9352;50.888;4.466;2022-12-18T04:06:26;-5.20;99.90
18446;DHT22;9352;50.888;4.466;2022-12-18T04:08:54;-5.20;99.90
18446;DHT22;9352;50.888;4.466;2022-12-18T04:11:22;-5.20;99.90
18446;DHT22;9352;50.888;4.466;2022-12-18T04:13:49;-5.20;99.90
18446;DHT22;9352;50.888;4.466;2022-12-18T04:16:16;-5.20;99.90
18446;DHT22;9352;50.888;4.466;2022-12-18T04:18:44;-5.20;99.90
18446;DHT22;9352;50.888;4.466;2022-12-18T04:21:11;-5.30;99.90
18446;DHT22;9352;50.888;4.466;2022-12-18T04:23:38;-5.20;99.90
18446;DHT22;9352;50.888;4.466;2022-12-18T04:26:05;-5.20;99.90
18446;DHT22;9352;50.888;4.466;2022-12-18T04:28:32;-5.20;99.90
18446;DHT22;9352;50.888;4.466;2022-12-18T04:30:58;-5.20;99.90
18446;DHT22;9352;50.888;4.466;2022-12-18T04:33:26;-5.20;99.90
18446;DHT22;9352;50.888;4.466;2022-12-18T04:35:54;-5.20;99.90
18446;DHT22;9352;50.888;4.466;2022-12-18T04:38:21;-5.20;99.90
18446;DHT22;9352;50.888;4.466;2022-12-18T04:40:48;-5.20;99.90
18446;DHT22;9352;50.888;4.466;2022-12-18T04:43:15;-5.20;99.90
18446;DHT22;9352;50.888;4.466;2022-12-18T04:45:42;-5.20;99.90
18446;DHT22;9352;50.888;4.466;2022-12-18T04:48:09;-5.20;99.90
18446;DHT22;9352;50.888;4.466;2022-12-18T04:50:35;-5.20;99.90
18446;DHT22;9352;50.888;4.466;2022-12-18T04:53:04;-5.20;99.90
18446;DHT22;9352;50.888;4.466;2022-12-18T04:55:31;-5.20;99.90
18446;DHT22;9352;50.888;4.466;2022-12-18T04:57:57;-5.20;99.90
18446;DHT22;9352;50.888;4.466;2022-12-18T05:00:24;-5.20;99.90
18446;DHT22;9352;50.888;4.466;2022-12-18T05:02:51;-5.20;99.90
18446;DHT22;9352;50.888;4.466;2022-12-18T05:05:18;-5.20;99.90
18446;DHT22;9352;50.888;4.466;2022-12-18T05:07:45;-5.20;99.90
18446;DHT22;9352;50.888;4.466;2022-12-18T05:10:13;-5.20;99.90
18446;DHT22;9352;50.888;4.466;2022-12-18T05:12:40;-5.20;99.90
18446;DHT22;9352;50.888;4.466;2022-12-18T05:15:21;-5.20;99.90
18446;DHT22;9352;50.888;4.466;2022-12-18T05:17:48;-5.20;99.90
18446;DHT22;9352;50.888;4.466;2022-12-18T05:20:15;-5.20;99.90
18446;DHT22;9352;50.888;4.466;2022-12-18T05:22:43;-5.20;99.90
18446;DHT22;9352;50.888;4.466;2022-12-18T05:25:10;-5.20;99.90
18446;DHT22;9352;50.888;4.466;2022-12-18T05:27:38;-5.20;99.90
18446;DHT22;9352;50.888;4.466;2022-12-18T05:30:06;-5.20;99.90
18446;DHT22;9352;50.888;4.466;2022-12-18T05:32:33;-5.20;99.90
18446;DHT22;9352;50.888;4.466;2022-12-18T05:35:00;-5.30;99.90
18446;DHT22;9352;50.888;4.466;2022-12-18T05:37:27;-5.30;99.90
18446;DHT22;9352;50.888;4.466;2022-12-18T05:39:54;-5.30;99.90
18446;DHT22;9352;50.888;4.466;2022-12-18T05:42:21;-5.30;99.90
18446;DHT22;9352;50.888;4.466;2022-12-18T05:44:49;-5.30;99.90
18446;DHT22;9352;50.888;4.466;2022-12-18T05:47:16;-5.30;99.90
18446;DHT22;9352;50.888;4.466;2022-12-18T05:49:43;-5.30;99.90
18446;DHT22;9352;50.888;4.466;2022-12-18T05:52:10;-5.30;99.90
18446;DHT22;9352;50.888;4.466;2022-12-18T05:54:37;-5.30;99.90
18446;DHT22;9352;50.888;4.466;2022-12-18T05:57:04;-5.30;99.90
18446;DHT22;9352;50.888;4.466;2022-12-18T05:59:31;-5.30;99.90
18446;DHT22;9352;50.888;4.466;2022-12-18T06:01:59;-5.30;99.90
18446;DHT22;9352;50.888;4.466;2022-12-18T06:04:26;-5.30;99.90
18446;DHT22;9352;50.888;4.466;2022-12-18T06:06:56;-5.30;99.90
18446;DHT22;9352;50.888;4.466;2022-12-18T06:09:23;-5.30;99.90
18446;DHT22;9352;50.888;4.466;2022-12-18T06:11:52;-5.30;99.90
18446;DHT22;9352;50.888;4.466;2022-12-18T06:14:19;-5.30;99.90
18446;DHT22;9352;50.888;4.466;2022-12-18T06:16:46;-5.40;99.90
18446;DHT22;9352;50.888;4.466;2022-12-18T06:19:16;-5.30;99.90
18446;DHT22;9352;50.888;4.466;2022-12-18T06:21:43;-5.30;99.90
18446;DHT22;9352;50.888;4.466;2022-12-18T06:24:10;-5.30;99.90
18446;DHT22;9352;50.888;4.466;2022-12-18T06:26:37;-5.30;99.90
18446;DHT22;9352;50.888;4.466;2022-12-18T06:29:04;-5.30;99.90
18446;DHT22;9352;50.888;4.466;2022-12-18T06:31:31;-5.30;99.90
18446;DHT22;9352;50.888;4.466;2022-12-18T06:33:58;-5.30;99.90
18446;DHT22;9352;50.888;4.466;2022-12-18T06:36:26;-5.30;99.90
18446;DHT22;9352;50.888;4.466;2022-12-18T06:38:56;-5.20;99.90
18446;DHT22;9352;50.888;4.466;2022-12-18T06:41:24;-5.20;99.90
18446;DHT22;9352;50.888;4.466;2022-12-18T06:43:50;-5.30;99.90
18446;DHT22;9352;50.888;4.466;2022-12-18T06:46:17;-5.30;99.90
18446;DHT22;9352;50.888;4.466;2022-12-18T06:48:47;-5.30;99.90
18446;DHT22;9352;50.888;4.466;2022-12-18T06:51:16;-5.30;99.90
18446;DHT22;9352;50.888;4.466;2022-12-18T06:53:44;-5.30;99.90
18446;DHT22;9352;50.888;4.466;2022-12-18T06:56:11;-5.30;99.90
18446;DHT22;9352;50.888;4.466;2022-12-18T06:58:39;-5.30;99.90
18446;DHT22;9352;50.888;4.466;2022-12-18T07:01:07;-5.20;99.90
18446;DHT22;9352;50.888;4.466;2022-12-18T07:03:35;-5.20;99.90
18446;DHT22;9352;50.888;4.466;2022-12-18T07:06:02;-5.20;99.90
18446;DHT22;9352;50.888;4.466;2022-12-18T07:08:29;-5.20;99.90
18446;DHT22;9352;50.888;4.466;2022-12-18T07:10:58;-5.10;99.90
18446;DHT22;9352;50.888;4.466;2022-12-18T07:13:25;-5.10;99.90
18446;DHT22;9352;50.888;4.466;2022-12-18T07:15:52;-4.90;99.90
18446;DHT22;9352;50.888;4.466;2022-12-18T07:18:19;-4.00;99.90
18446;DHT22;9352;50.888;4.466;2022-12-18T07:20:45;-4.20;99.90
18446;DHT22;9352;50.888;4.466;2022-12-18T07:23:12;-4.40;99.90
18446;DHT22;9352;50.888;4.466;2022-12-18T07:25:40;-4.60;99.90
18446;DHT22;9352;50.888;4.466;2022-12-18T07:28:08;-4.70;99.90
18446;DHT22;9352;50.888;4.466;2022-12-18T07:30:37;-4.70;99.90
18446;DHT22;9352;50.888;4.466;2022-12-18T07:33:04;-4.70;99.90
18446;DHT22;9352;50.888;4.466;2022-12-18T07:35:32;-4.80;99.90
18446;DHT22;9352;50.888;4.466;2022-12-18T07:37:59;-4.80;99.90
18446;DHT22;9352;50.888;4.466;2022-12-18T07:40:26;-4.90;99.90
18446;DHT22;9352;50.888;4.466;2022-12-18T07:42:53;-4.90;99.90
18446;DHT22;9352;50.888;4.466;2022-12-18T07:45:21;-4.90;99.90
18446;DHT22;9352;50.888;4.466;2022-12-18T07:47:48;-5.00;99.90
18446;DHT22;9352;50.888;4.466;2022-12-18T07:50:15;-5.00;99.90
18446;DHT22;9352;50.888;4.466;2022-12-18T07:52:42;-5.00;99.90
18446;DHT22;9352;50.888;4.466;2022-12-18T07:55:08;-5.00;99.90
18446;DHT22;9352;50.888;4.466;2022-12-18T07:57:35;-5.00;99.90
18446;DHT22;9352;50.888;4.466;2022-12-18T08:00:03;-5.00;99.90
18446;DHT22;9352;50.888;4.466;2022-12-18T08:02:32;-5.00;99.90
18446;DHT22;9352;50.888;4.466;2022-12-18T08:04:59;-4.90;99.90
18446;DHT22;9352;50.888;4.466;2022-12-18T08:07:26;-4.80;99.90
18446;DHT22;9352;50.888;4.466;2022-12-18T08:09:52;-4.70;99.90
18446;DHT22;9352;50.888;4.466;2022-12-18T08:12:19;-4.50;99.90
18446;DHT22;9352;50.888;4.466;2022-12-18T08:14:46;-4.50;99.90
18446;DHT22;9352;50.888;4.466;2022-12-18T08:17:13;-4.40;99.90
18446;DHT22;9352;50.888;4.466;2022-12-18T08:19:41;-4.30;99.90
18446;DHT22;9352;50.888;4.466;2022-12-18T08:22:08;-4.20;99.90
18446;DHT22;9352;50.888;4.466;2022-12-18T08:24:35;-4.10;99.90
18446;DHT22;9352;50.888;4.466;2022-12-18T08:27:02;-4.10;99.90
18446;DHT22;9352;50.888;4.466;2022-12-18T08:29:29;-4.00;99.90
18446;DHT22;9352;50.888;4.466;2022-12-18T08:31:57;-3.90;99.90
18446;DHT22;9352;50.888;4.466;2022-12-18T08:34:24;-3.80;99.90
18446;DHT22;9352;50.888;4.466;2022-12-18T08:36:52;-3.70;99.90
18446;DHT22;9352;50.888;4.466;2022-12-18T08:39:19;-3.70;99.90
18446;DHT22;9352;50.888;4.466;2022-12-18T08:41:46;-3.70;99.90
18446;DHT22;9352;50.888;4.466;2022-12-18T08:44:33;-3.50;99.90
18446;DHT22;9352;50.888;4.466;2022-12-18T08:47:05;-3.40;99.90
18446;DHT22;9352;50.888;4.466;2022-12-18T08:49:32;-3.30;99.90
18446;DHT22;9352;50.888;4.466;2022-12-18T08:52:01;-3.20;99.90
18446;DHT22;9352;50.888;4.466;2022-12-18T08:54:28;-3.10;99.90
18446;DHT22;9352;50.888;4.466;2022-12-18T08:56:55;-2.90;99.90
18446;DHT22;9352;50.888;4.466;2022-12-18T08:59:22;-2.80;99.90
18446;DHT22;9352;50.888;4.466;2022-12-18T09:01:49;-2.70;99.90
18446;DHT22;9352;50.888;4.466;2022-12-18T09:04:16;-2.60;99.90
18446;DHT22;9352;50.888;4.466;2022-12-18T09:06:43;-2.50;99.90
18446;DHT22;9352;50.888;4.466;2022-12-18T09:09:12;-2.30;99.90
18446;DHT22;9352;50.888;4.466;2022-12-18T09:11:39;-2.20;99.90
18446;DHT22;9352;50.888;4.466;2022-12-18T09:14:06;-2.10;99.90
18446;DHT22;9352;50.888;4.466;2022-12-18T09:16:33;-2.00;99.90
18446;DHT22;9352;50.888;4.466;2022-12-18T09:19:01;-1.90;99.90
18446;DHT22;9352;50.888;4.466;2022-12-18T09:21:30;-1.90;99.90
18446;DHT22;9352;50.888;4.466;2022-12-18T09:23:57;-1.80;99.90
18446;DHT22;9352;50.888;4.466;2022-12-18T09:26:25;-1.70;99.90
18446;DHT22;9352;50.888;4.466;2022-12-18T09:28:53;-1.60;99.90
18446;DHT22;9352;50.888;4.466;2022-12-18T09:31:22;-1.50;99.90
18446;DHT22;9352;50.888;4.466;2022-12-18T09:33:49;-1.30;99.90
18446;DHT22;9352;50.888;4.466;2022-12-18T09:36:17;-1.20;99.90
18446;DHT22;9352;50.888;4.466;2022-12-18T09:38:44;-1.10;99.90
18446;DHT22;9352;50.888;4.466;2022-12-18T09:41:22;-1.00;99.90
18446;DHT22;9352;50.888;4.466;2022-12-18T09:43:56;-1.00;99.90
18446;DHT22;9352;50.888;4.466;2022-12-18T09:46:27;-0.90;99.90
18446;DHT22;9352;50.888;4.466;2022-12-18T09:48:59;-0.80;99.90
18446;DHT22;9352;50.888;4.466;2022-12-18T09:51:28;-0.70;99.90
18446;DHT22;9352;50.888;4.466;2022-12-18T09:53:59;-0.70;99.90
18446;DHT22;9352;50.888;4.466;2022-12-18T09:56:29;-0.60;99.90
18446;DHT22;9352;50.888;4.466;2022-12-18T09:59:00;-0.50;99.90
18446;DHT22;9352;50.888;4.466;2022-12-18T10:01:29;-0.50;99.90
18446;DHT22;9352;50.888;4.466;2022-12-18T10:03:59;-0.40;99.90
18446;DHT22;9352;50.888;4.466;2022-12-18T10:06:29;-0.30;99.90
18446;DHT22;9352;50.888;4.466;2022-12-18T10:09:03;-0.30;99.90
18446;DHT22;9352;50.888;4.466;2022-12-18T10:11:40;-0.20;99.90
18446;DHT22;9352;50.888;4.466;2022-12-18T10:14:16;-0.10;99.90
18446;DHT22;9352;50.888;4.466;2022-12-18T10:16:55;-0.10;99.90
18446;DHT22;9352;50.888;4.466;2022-12-18T10:19:36;-0.10;99.90
18446;DHT22;9352;50.888;4.466;2022-12-18T10:22:13;0.00;99.90
18446;DHT22;9352;50.888;4.466;2022-12-18T10:24:50;0.00;99.90
18446;DHT22;9352;50.888;4.466;2022-12-18T10:27:23;0.10;99.90
18446;DHT22;9352;50.888;4.466;2022-12-18T10:29:51;0.10;99.90
18446;DHT22;9352;50.888;4.466;2022-12-18T10:32:21;0.10;99.90
18446;DHT22;9352;50.888;4.466;2022-12-18T10:34:50;0.00;99.90
18446;DHT22;9352;50.888;4.466;2022-12-18T10:37:19;0.10;99.90
18446;DHT22;9352;50.888;4.466;2022-12-18T10:39:46;0.20;99.90
18446;DHT22;9352;50.888;4.466;2022-12-18T10:42:31;0.30;99.90
18446;DHT22;9352;50.888;4.466;2022-12-18T10:45:02;0.30;99.90
18446;DHT22;9352;50.888;4.466;2022-12-18T10:47:30;0.40;99.90
18446;DHT22;9352;50.888;4.466;2022-12-18T10:49:57;0.40;99.90
18446;DHT22;9352;50.888;4.466;2022-12-18T10:52:25;0.60;99.90
18446;DHT22;9352;50.888;4.466;2022-12-18T10:54:55;0.60;99.90
18446;DHT22;9352;50.888;4.466;2022-12-18T10:57:32;0.70;99.90
18446;DHT22;9352;50.888;4.466;2022-12-18T11:00:23;0.70;99.90
18446;DHT22;9352;50.888;4.466;2022-12-18T11:02:51;0.80;99.90
18446;DHT22;9352;50.888;4.466;2022-12-18T11:05:27;0.90;99.90
18446;DHT22;9352;50.888;4.466;2022-12-18T11:07:55;0.90;99.90
18446;DHT22;9352;50.888;4.466;2022-12-18T11:10:25;1.00;99.90
18446;DHT22;9352;50.888;4.466;2022-12-18T11:12:52;1.10;99.90
18446;DHT22;9352;50.888;4.466;2022-12-18T11:15:24;1.10;99.90
18446;DHT22;9352;50.888;4.466;2022-12-18T11:17:53;1.10;99.90
18446;DHT22;9352;50.888;4.466;2022-12-18T11:20:26;1.20;99.90
18446;DHT22;9352;50.888;4.466;2022-12-18T11:22:56;1.20;99.90
18446;DHT22;9352;50.888;4.466;2022-12-18T11:25:23;1.30;99.90
18446;DHT22;9352;50.888;4.466;2022-12-18T11:27:52;1.30;99.90
18446;DHT22;9352;50.888;4.466;2022-12-18T11:30:26;1.30;99.90
18446;DHT22;9352;50.888;4.466;2022-12-18T11:32:55;1.30;99.90
18446;DHT22;9352;50.888;4.466;2022-12-18T11:35:30;1.30;99.90
18446;DHT22;9352;50.888;4.466;2022-12-18T11:38:02;1.40;99.90
18446;DHT22;9352;50.888;4.466;2022-12-18T11:40:34;1.40;99.90
18446;DHT22;9352;50.888;4.466;2022-12-18T11:43:06;1.40;99.90
18446;DHT22;9352;50.888;4.466;2022-12-18T11:45:40;1.40;99.90
18446;DHT22;9352;50.888;4.466;2022-12-18T11:48:14;1.40;99.90
18446;DHT22;9352;50.888;4.466;2022-12-18T11:50:46;1.50;99.90
18446;DHT22;9352;50.888;4.466;2022-12-18T11:53:14;1.40;99.90
18446;DHT22;9352;50.888;4.466;2022-12-18T11:55:47;1.50;99.90
18446;DHT22;9352;50.888;4.466;2022-12-18T11:58:22;1.60;99.90
18446;DHT22;9352;50.888;4.466;2022-12-18T12:01:02;1.60;99.90
18446;DHT22;9352;50.888;4.466;2022-12-18T12:03:57;1.70;99.90
18446;DHT22;9352;50.888;4.466;2022-12-18T12:06:33;1.70;99.90
18446;DHT22;9352;50.888;4.466;2022-12-18T12:09:10;1.80;99.90
18446;DHT22;9352;50.888;4.466;2022-12-18T12:11:45;1.80;99.90
18446;DHT22;9352;50.888;4.466;2022-12-18T12:14:25;1.90;99.90
18446;DHT22;9352;50.888;4.466;2022-12-18T12:16:59;2.00;99.90
18446;DHT22;9352;50.888;4.466;2022-12-18T12:19:37;2.00;99.90
18446;DHT22;9352;50.888;4.466;2022-12-18T12:22:10;2.00;99.90
18446;DHT22;9352;50.888;4.466;2022-12-18T12:24:50;2.20;99.90
18446;DHT22;9352;50.888;4.466;2022-12-18T12:27:26;2.30;99.90
18446;DHT22;9352;50.888;4.466;2022-12-18T12:30:03;2.30;99.90
18446;DHT22;9352;50.888;4.466;2022-12-18T12:32:47;2.30;99.90
18446;DHT22;9352;50.888;4.466;2022-12-18T12:35:27;2.30;99.90
18446;DHT22;9352;50.888;4.466;2022-12-18T12:38:05;2.50;99.90
18446;DHT22;9352;50.888;4.466;2022-12-18T12:40:36;2.40;99.90
18446;DHT22;9352;50.888;4.466;2022-12-18T12:43:19;2.40;99.90
18446;DHT22;9352;50.888;4.466;2022-12-18T12:45:49;2.40;99.90
18446;DHT22;9352;50.888;4.466;2022-12-18T12:48:27;2.40;99.90
18446;DHT22;9352;50.888;4.466;2022-12-18T12:50:59;2.50;99.90
18446;DHT22;9352;50.888;4.466;2022-12-18T12:53:34;2.50;99.90
18446;DHT22;9352;50.888;4.466;2022-12-18T12:56:03;2.50;99.90
18446;DHT22;9352;50.888;4.466;2022-12-18T12:58:36;2.50;99.90
18446;DHT22;9352;50.888;4.466;2022-12-18T13:01:13;2.60;99.90
18446;DHT22;9352;50.888;4.466;2022-12-18T13:03:54;2.50;99.90
18446;DHT22;9352;50.888;4.466;2022-12-18T13:06:30;2.50;99.90
18446;DHT22;9352;50.888;4.466;2022-12-18T13:09:00;2.60;99.90
18446;DHT22;9352;50.888;4.466;2022-12-18T13:11:34;2.60;99.90
18446;DHT22;9352;50.888;4.466;2022-12-18T13:14:37;2.50;99.90
18446;DHT22;9352;50.888;4.466;2022-12-18T13:17:28;2.60;99.90
18446;DHT22;9352;50.888;4.466;2022-12-18T13:20:10;2.60;99.90
18446;DHT22;9352;50.888;4.466;2022-12-18T13:22:39;2.50;99.90
18446;DHT22;9352;50.888;4.466;2022-12-18T13:25:29;2.60;99.90
18446;DHT22;9352;50.888;4.466;2022-12-18T13:28:03;2.60;99.90
18446;DHT22;9352;50.888;4.466;2022-12-18T13:30:52;2.70;99.90
18446;DHT22;9352;50.888;4.466;2022-12-18T13:33:49;2.60;99.90
18446;DHT22;9352;50.888;4.466;2022-12-18T13:36:29;2.60;99.90
18446;DHT22;9352;50.888;4.466;2022-12-18T13:45:45;2.50;99.90
18446;DHT22;9352;50.888;4.466;2022-12-18T13:48:22;2.50;99.90
18446;DHT22;9352;50.888;4.466;2022-12-18T13:50:58;2.50;99.90
18446;DHT22;9352;50.888;4.466;2022-12-18T13:53:35;2.50;99.90
18446;DHT22;9352;50.888;4.466;2022-12-18T13:56:03;2.40;99.90
18446;DHT22;9352;50.888;4.466;2022-12-18T13:58:30;2.40;99.90
18446;DHT22;9352;50.888;4.466;2022-12-18T14:00:57;2.40;99.90
18446;DHT22;9352;50.888;4.466;2022-12-18T14:03:29;2.40;99.90
18446;DHT22;9352;50.888;4.466;2022-12-18T14:06:05;2.40;99.90
18446;DHT22;9352;50.888;4.466;2022-12-18T14:08:38;2.40;99.90
18446;DHT22;9352;50.888;4.466;2022-12-18T14:11:06;2.40;99.90
18446;DHT22;9352;50.888;4.466;2022-12-18T14:13:37;2.40;99.90
18446;DHT22;9352;50.888;4.466;2022-12-18T14:16:06;2.40;99.90
18446;DHT22;9352;50.888;4.466;2022-12-18T14:18:43;2.40;99.90
18446;DHT22;9352;50.888;4.466;2022-12-18T14:21:19;2.30;99.90
18446;DHT22;9352;50.888;4.466;2022-12-18T14:23:49;2.40;99.90
18446;DHT22;9352;50.888;4.466;2022-12-18T14:26:24;2.30;99.90
18446;DHT22;9352;50.888;4.466;2022-12-18T14:28:54;2.30;99.90
18446;DHT22;9352;50.888;4.466;2022-12-18T14:31:22;2.30;99.90
18446;DHT22;9352;50.888;4.466;2022-12-18T14:33:50;2.30;99.90
18446;DHT22;9352;50.888;4.466;2022-12-18T14:36:19;2.30;99.90
18446;DHT22;9352;50.888;4.466;2022-12-18T14:38:50;2.30;99.90
18446;DHT22;9352;50.888;4.466;2022-12-18T14:41:31;2.20;99.90
18446;DHT22;9352;50.888;4.466;2022-12-18T14:44:05;2.20;99.90
18446;DHT22;9352;50.888;4.466;2022-12-18T14:46:35;2.20;99.90
18446;DHT22;9352;50.888;4.466;2022-12-18T14:49:19;2.20;99.90
18446;DHT22;9352;50.888;4.466;2022-12-18T14:51:52;2.20;99.90
18446;DHT22;9352;50.888;4.466;2022-12-18T14:54:25;2.20;99.90
18446;DHT22;9352;50.888;4.466;2022-12-18T14:57:00;2.20;99.90
18446;DHT22;9352;50.888;4.466;2022-12-18T14:59:28;2.20;99.90
18446;DHT22;9352;50.888;4.466;2022-12-18T15:02:01;2.20;99.90
18446;DHT22;9352;50.888;4.466;2022-12-18T15:04:31;2.20;99.90
18446;DHT22;9352;50.888;4.466;2022-12-18T15:07:04;2.20;99.90
18446;DHT22;9352;50.888;4.466;2022-12-18T15:09:33;2.10;99.90
18446;DHT22;9352;50.888;4.466;2022-12-18T15:12:01;2.10;99.90
18446;DHT22;9352;50.888;4.466;2022-12-18T15:14:33;2.10;99.90
18446;DHT22;9352;50.888;4.466;2022-12-18T15:17:03;2.10;99.90
18446;DHT22;9352;50.888;4.466;2022-12-18T15:19:38;2.10;99.90
18446;DHT22;9352;50.888;4.466;2022-12-18T15:22:25;2.10;99.90
18446;DHT22;9352;50.888;4.466;2022-12-18T15:24:54;2.00;99.90
18446;DHT22;9352;50.888;4.466;2022-12-18T15:27:27;2.00;99.90
18446;DHT22;9352;50.888;4.466;2022-12-18T15:30:22;2.00;99.90
18446;DHT22;9352;50.888;4.466;2022-12-18T15:32:50;2.00;99.90
18446;DHT22;9352;50.888;4.466;2022-12-18T15:35:20;2.00;99.90
18446;DHT22;9352;50.888;4.466;2022-12-18T15:37:47;2.00;99.90
18446;DHT22;9352;50.888;4.466;2022-12-18T15:40:17;2.00;99.90
18446;DHT22;9352;50.888;4.466;2022-12-18T15:42:45;2.10;99.90
18446;DHT22;9352;50.888;4.466;2022-12-18T15:45:30;2.10;99.90
18446;DHT22;9352;50.888;4.466;2022-12-18T15:47:57;2.10;99.90
18446;DHT22;9352;50.888;4.466;2022-12-18T15:50:24;2.10;99.90
18446;DHT22;9352;50.888;4.466;2022-12-18T15:52:53;2.10;99.90
18446;DHT22;9352;50.888;4.466;2022-12-18T15:55:23;2.10;99.90
18446;DHT22;9352;50.888;4.466;2022-12-18T15:58:09;2.10;99.90
18446;DHT22;9352;50.888;4.466;2022-12-18T16:00:38;2.10;99.90
18446;DHT22;9352;50.888;4.466;2022-12-18T16:03:05;2.10;99.90
18446;DHT22;9352;50.888;4.466;2022-12-18T16:05:33;2.10;99.90
18446;DHT22;9352;50.888;4.466;2022-12-18T16:07:59;2.10;99.90
18446;DHT22;9352;50.888;4.466;2022-12-18T16:10:28;2.20;99.90
18446;DHT22;9352;50.888;4.466;2022-12-18T16:12:55;2.20;99.90
18446;DHT22;9352;50.888;4.466;2022-12-18T16:15:22;2.10;99.90
18446;DHT22;9352;50.888;4.466;2022-12-18T16:17:49;2.10;99.90
18446;DHT22;9352;50.888;4.466;2022-12-18T16:20:18;2.10;99.90